Time;durP1;ratioP1;P1;durP2;ratioP2;P2;SDS_P1;SDS_P2;PMS_P1;PMS_P2;Temp;Humidity;BMP_temperature;BMP_pressure;BME280_temperature;BME280_humidity;BME280_pressure;Samples;Min_cycle;Max_cycle;Signal;HPM_P1;HPM_P2
2021/09/16 00:00:50;;;;;;;;;;;;;;;;;;5033171;28;20010;-67
2021/09/16 00:03:17;;;;;;;;;;;;;;;;;;5033181;28;20020;-65
2021/09/16 00:05:44;;;;;;;;;;;;;;;;;;5032349;28;20026;-64
2021/09/16 00:08:11;;;;;;;;;;;;;;;;;;5032977;28;20010;-67
2021/09/16 00:10:38;;;;;;;;;;;;;;;;;;5033357;28;20032;-64
2021/09/16 00:13:05;;;;;;;;;;;;;;;;;;5033068;28;20687;-64
2021/09/16 00:15:31;;;;;;;;;;;;;;;;;;5033205;28;20032;-69
2021/09/16 00:17:58;;;;;;;;;;;;;;;;;;5032920;28;20016;-64
2021/09/16 00:20:25;;;;;;;;;;;;;;;;;;5033221;28;20032;-65
2021/09/16 00:22:52;;;;;;;;;;;;;;;;;;5032743;28;20491;-64
2021/09/16 00:25:19;;;;;;;;;;;;;;;;;;5032822;28;20016;-65
2021/09/16 00:27:46;;;;;;;;;;;;;;;;;;5032499;28;20010;-64
2021/09/16 00:30:13;;;;;;;;;;;;;;;;;;5032317;28;20521;-64
2021/09/16 00:32:40;;;;;;;;;;;;;;;;;;5032834;28;20017;-66
2021/09/16 00:35:07;;;;;;;;;;;;;;;;;;5032761;28;20014;-67
2021/09/16 00:37:34;;;;;;;;;;;;;;;;;;5032642;28;20025;-65
2021/09/16 00:40:01;;;;;;;;;;;;;;;;;;5032756;28;20032;-64
2021/09/16 00:42:28;;;;;;;;;;;;;;;;;;5032321;28;20010;-64
2021/09/16 00:44:55;;;;;;;;;;;;;;;;;;5032664;28;20020;-64
2021/09/16 00:47:22;;;;;;;;;;;;;;;;;;5032181;28;20026;-66
2021/09/16 00:49:49;;;;;;;;;;;;;;;;;;5032401;28;20021;-63
2021/09/16 00:52:16;;;;;;;;;;;;;;;;;;5032666;28;20010;-64
2021/09/16 00:54:43;;;;;;;;;;;;;;;;;;5032378;28;20396;-64
2021/09/16 00:57:10;;;;;;;;;;;;;;;;;;5032366;28;20048;-65
2021/09/16 00:59:37;;;;;;;;;;;;;;;;;;5032370;28;20010;-64
2021/09/16 01:02:04;;;;;;;;;;;;;;;;;;5032545;28;20009;-64
2021/09/16 01:04:31;;;;;;;;;;;;;;;;;;5031655;28;20032;-65
2021/09/16 01:06:58;;;;;;;;;;;;;;;;;;5032277;28;20030;-67
2021/09/16 01:09:25;;;;;;;;;;;;;;;;;;5034221;28;20448;-64
2021/09/16 01:11:52;;;;;;;;;;;;;;;;;;5036408;28;20017;-64
2021/09/16 01:14:19;;;;;;;;;;;;;;;;;;5035660;28;20017;-64
2021/09/16 01:16:46;;;;;;;;;;;;;;;;;;5035322;28;20545;-64
2021/09/16 01:19:13;;;;;;;;;;;;;;;;;;5036028;28;20014;-64
2021/09/16 01:21:40;;;;;;;;;;;;;;;;;;5036006;28;20109;-68
2021/09/16 01:24:07;;;;;;;;;;;;;;;;;;5035839;28;20100;-64
2021/09/16 01:26:34;;;;;;;;;;;;;;;;;;5035618;28;20532;-64
2021/09/16 01:29:01;;;;;;;;;;;;;;;;;;5036040;28;20025;-65
2021/09/16 01:31:27;;;;;;;;;;;;;;;;;;5035707;28;20009;-64
2021/09/16 01:33:54;;;;;;;;;;;;;;;;;;5035499;28;20489;-66
2021/09/16 01:36:21;;;;;;;;;;;;;;;;;;5035564;28;20026;-64
2021/09/16 01:38:48;;;;;;;;;;;;;;;;;;5035622;28;20017;-64
2021/09/16 01:41:15;;;;;;;;;;;;;;;;;;5035248;28;20461;-64
2021/09/16 01:43:42;;;;;;;;;;;;;;;;;;5035598;28;20014;-64
2021/09/16 01:46:09;;;;;;;;;;;;;;;;;;5035110;28;20026;-65
2021/09/16 01:48:36;;;;;;;;;;;;;;;;;;5035300;28;20021;-65
2021/09/16 01:51:03;;;;;;;;;;;;;;;;;;5035184;28;20492;-64
2021/09/16 01:53:30;;;;;;;;;;;;;;;;;;5035235;28;20014;-64
2021/09/16 01:55:57;;;;;;;;;;;;;;;;;;5035022;28;20032;-65
2021/09/16 01:58:24;;;;;;;;;;;;;;;;;;5035407;28;20013;-64
2021/09/16 02:00:50;;;;;;;;;;;;;;;;;;5035062;28;20477;-64
2021/09/16 02:03:17;;;;;;;;;;;;;;;;;;5035366;28;20021;-64
2021/09/16 02:05:44;;;;;;;;;;;;;;;;;;5034860;28;20033;-65
2021/09/16 02:08:11;;;;;;;;;;;;;;;;;;5034962;28;20388;-65
2021/09/16 02:10:38;;;;;;;;;;;;;;;;;;5035355;28;20034;-65
2021/09/16 02:13:05;;;;;;;;;;;;;;;;;;5035111;28;20016;-64
2021/09/16 02:15:32;;;;;;;;;;;;;;;;;;5034290;28;20504;-64
2021/09/16 02:17:59;;;;;;;;;;;;;;;;;;5035589;28;20006;-68
2021/09/16 02:20:26;;;;;;;;;;;;;;;;;;5034400;28;20017;-66
2021/09/16 02:22:53;;;;;;;;;;;;;;;;;;5034810;28;20492;-66
2021/09/16 02:25:20;;;;;;;;;;;;;;;;;;5034649;28;20010;-66
2021/09/16 02:27:46;;;;;;;;;;;;;;;;;;5034588;28;20010;-66
2021/09/16 02:30:13;;;;;;;;;;;;;;;;;;5034091;28;20385;-65
2021/09/16 02:32:40;;;;;;;;;;;;;;;;;;5034614;28;20017;-65
2021/09/16 02:35:07;;;;;;;;;;;;;;;;;;5034471;28;20010;-65
2021/09/16 02:37:34;;;;;;;;;;;;;;;;;;5034415;28;20523;-66
2021/09/16 02:40:01;;;;;;;;;;;;;;;;;;5034666;28;20017;-65
2021/09/16 02:42:28;;;;;;;;;;;;;;;;;;5034229;28;20013;-66
2021/09/16 02:44:55;;;;;;;;;;;;;;;;;;5034386;28;20060;-65
2021/09/16 02:47:22;;;;;;;;;;;;;;;;;;5033906;28;20524;-65
2021/09/16 02:49:49;;;;;;;;;;;;;;;;;;5034122;28;20022;-65
2021/09/16 02:52:16;;;;;;;;;;;;;;;;;;5034226;28;20029;-65
2021/09/16 02:54:43;;;;;;;;;;;;;;;;;;5033497;28;20462;-66
2021/09/16 02:57:09;;;;;;;;;;;;;;;;;;5033829;28;20026;-66
2021/09/16 02:59:36;;;;;;;;;;;;;;;;;;5034166;28;20037;-65
2021/09/16 03:02:03;;;;;;;;;;;;;;;;;;5033701;28;20010;-65
2021/09/16 03:04:30;;;;;;;;;;;;;;;;;;5033893;28;20014;-65
2021/09/16 03:06:57;;;;;;;;;;;;;;;;;;5034196;28;20401;-66
2021/09/16 03:09:24;;;;;;;;;;;;;;;;;;5033454;28;20022;-65
2021/09/16 03:11:51;;;;;;;;;;;;;;;;;;5033612;28;20477;-65
2021/09/16 03:14:18;;;;;;;;;;;;;;;;;;5033613;28;20017;-68
2021/09/16 03:16:45;;;;;;;;;;;;;;;;;;5033118;28;20030;-66
2021/09/16 03:19:12;;;;;;;;;;;;;;;;;;5033333;28;20010;-67
2021/09/16 03:21:39;;;;;;;;;;;;;;;;;;5033602;28;20017;-65
2021/09/16 03:24:06;;;;;;;;;;;;;;;;;;5033478;28;20010;-65
2021/09/16 03:26:33;;;;;;;;;;;;;;;;;;5033173;28;20417;-65
2021/09/16 03:29:00;;;;;;;;;;;;;;;;;;5033629;28;20017;-63
2021/09/16 03:31:27;;;;;;;;;;;;;;;;;;5032614;28;20020;-65
2021/09/16 03:33:54;;;;;;;;;;;;;;;;;;5033022;28;20457;-65
2021/09/16 03:36:20;;;;;;;;;;;;;;;;;;5032922;28;20026;-66
2021/09/16 03:38:47;;;;;;;;;;;;;;;;;;5033054;28;20020;-66
2021/09/16 03:41:14;;;;;;;;;;;;;;;;;;5033103;28;20009;-65
2021/09/16 03:43:41;;;;;;;;;;;;;;;;;;5032908;28;20010;-66
2021/09/16 03:46:08;;;;;;;;;;;;;;;;;;5032851;28;20033;-67
2021/09/16 03:48:35;;;;;;;;;;;;;;;;;;5032793;28;20035;-64
2021/09/16 03:51:02;;;;;;;;;;;;;;;;;;5032513;28;20026;-65
2021/09/16 03:53:29;;;;;;;;;;;;;;;;;;5032953;28;20009;-65
2021/09/16 03:55:56;;;;;;;;;;;;;;;;;;5032691;28;20026;-65
2021/09/16 03:58:23;;;;;;;;;;;;;;;;;;5032481;28;20017;-67
2021/09/16 04:00:50;;;;;;;;;;;;;;;;;;5032471;28;20010;-67
2021/09/16 04:03:17;;;;;;;;;;;;;;;;;;5032687;28;20013;-65
2021/09/16 04:05:43;;;;;;;;;;;;;;;;;;5032107;28;20026;-64
2021/09/16 04:08:10;;;;;;;;;;;;;;;;;;5032433;28;20017;-65
2021/09/16 04:10:38;;;;;;;;;;;;;;;;;;5032596;28;20125;-65
2021/09/16 04:13:06;;;;;;;;;;;;;;;;;;5032903;28;20009;-65
2021/09/16 04:15:33;;;;;;;;;;;;;;;;;;5032314;28;20038;-65
2021/09/16 04:18:00;;;;;;;;;;;;;;;;;;5032306;28;20477;-68
2021/09/16 04:20:27;;;;;;;;;;;;;;;;;;5032653;28;20033;-66
2021/09/16 04:22:54;;;;;;;;;;;;;;;;;;5032568;28;20286;-64
2021/09/16 04:25:21;;;;;;;;;;;;;;;;;;5032392;28;20477;-65
2021/09/16 04:27:48;;;;;;;;;;;;;;;;;;5032213;28;20018;-65
2021/09/16 04:30:15;;;;;;;;;;;;;;;;;;5032526;28;20026;-65
2021/09/16 04:32:42;;;;;;;;;;;;;;;;;;5032292;28;20461;-65
2021/09/16 04:35:09;;;;;;;;;;;;;;;;;;5032344;28;20010;-65
2021/09/16 04:37:36;;;;;;;;;;;;;;;;;;5032263;28;20519;-65
2021/09/16 04:40:03;;;;;;;;;;;;;;;;;;5032276;28;20017;-65
2021/09/16 04:42:30;;;;;;;;;;;;;;;;;;5033140;28;20010;-65
2021/09/16 04:44:57;;;;;;;;;;;;;;;;;;5036280;28;20477;-67
2021/09/16 04:47:24;;;;;;;;;;;;;;;;;;5035820;28;20109;-65
2021/09/16 04:49:51;;;;;;;;;;;;;;;;;;5036465;28;20032;-65
2021/09/16 04:52:17;;;;;;;;;;;;;;;;;;5036428;28;20018;-66
2021/09/16 04:54:44;;;;;;;;;;;;;;;;;;5036038;28;20014;-65
2021/09/16 04:57:11;;;;;;;;;;;;;;;;;;5036010;28;20033;-67
2021/09/16 04:59:38;;;;;;;;;;;;;;;;;;5036120;28;20010;-65
2021/09/16 05:02:05;;;;;;;;;;;;;;;;;;5035942;28;20013;-66
2021/09/16 05:04:32;;;;;;;;;;;;;;;;;;5036060;28;20017;-65
2021/09/16 05:06:59;;;;;;;;;;;;;;;;;;5035919;28;20056;-65
2021/09/16 05:09:26;;;;;;;;;;;;;;;;;;5036356;28;20050;-66
2021/09/16 05:11:53;;;;;;;;;;;;;;;;;;5035975;28;20026;-65
2021/09/16 05:14:20;;;;;;;;;;;;;;;;;;5035684;28;20548;-65
2021/09/16 05:16:47;;;;;;;;;;;;;;;;;;5035474;28;20045;-66
2021/09/16 05:19:14;;;;;;;;;;;;;;;;;;5035876;28;20010;-66
2021/09/16 05:21:41;;;;;;;;;;;;;;;;;;5035818;28;20393;-66
2021/09/16 05:24:08;;;;;;;;;;;;;;;;;;5035383;28;20021;-66
2021/09/16 05:26:34;;;;;;;;;;;;;;;;;;5035551;28;20034;-65
2021/09/16 05:29:01;;;;;;;;;;;;;;;;;;5035389;28;20396;-65
2021/09/16 05:31:28;;;;;;;;;;;;;;;;;;5035555;28;20029;-64
2021/09/16 05:33:55;;;;;;;;;;;;;;;;;;5035481;28;20017;-64
2021/09/16 05:36:22;;;;;;;;;;;;;;;;;;5035453;28;20508;-65
2021/09/16 05:38:49;;;;;;;;;;;;;;;;;;5035319;28;20009;-66
2021/09/16 05:41:16;;;;;;;;;;;;;;;;;;5035418;28;20137;-66
2021/09/16 05:43:43;;;;;;;;;;;;;;;;;;5035226;28;20466;-66
2021/09/16 05:46:10;;;;;;;;;;;;;;;;;;5035301;28;20032;-67
2021/09/16 05:48:37;;;;;;;;;;;;;;;;;;5035447;28;20476;-66
2021/09/16 05:51:04;;;;;;;;;;;;;;;;;;5035163;28;20027;-65
2021/09/16 05:53:31;;;;;;;;;;;;;;;;;;5035427;28;20075;-65
2021/09/16 05:55:57;;;;;;;;;;;;;;;;;;5033835;28;20030;-65
2021/09/16 05:58:24;;;;;;;;;;;;;;;;;;5035418;28;20013;-69
2021/09/16 06:00:51;;;;;;;;;;;;;;;;;;5034987;28;20009;-65
2021/09/16 06:03:18;;;;;;;;;;;;;;;;;;5035613;28;20017;-65
2021/09/16 06:05:45;;;;;;;;;;;;;;;;;;5035435;28;20032;-66
2021/09/16 06:08:12;;;;;;;;;;;;;;;;;;5035428;28;20010;-66
2021/09/16 06:10:39;;;;;;;;;;;;;;;;;;5034962;28;20022;-68
2021/09/16 06:13:06;;;;;;;;;;;;;;;;;;5035583;28;20017;-68
2021/09/16 06:15:33;;;;;;;;;;;;;;;;;;5035106;28;20038;-67
2021/09/16 06:18:00;;;;;;;;;;;;;;;;;;5035203;28;20488;-67
2021/09/16 06:20:27;;;;;;;;;;;;;;;;;;5035584;28;20009;-67
2021/09/16 06:22:54;;;;;;;;;;;;;;;;;;5035378;28;20009;-66
2021/09/16 06:25:21;;;;;;;;;;;;;;;;;;5034742;28;20010;-66
2021/09/16 06:27:47;;;;;;;;;;;;;;;;;;5034625;28;20027;-65
2021/09/16 06:30:14;;;;;;;;;;;;;;;;;;5035074;28;20022;-66
2021/09/16 06:32:41;;;;;;;;;;;;;;;;;;5034669;28;20009;-65
2021/09/16 06:35:08;;;;;;;;;;;;;;;;;;5034653;28;20020;-65
2021/09/16 06:37:35;;;;;;;;;;;;;;;;;;5034759;28;20026;-65
2021/09/16 06:40:02;;;;;;;;;;;;;;;;;;5034262;28;20473;-65
2021/09/16 06:42:29;;;;;;;;;;;;;;;;;;5034546;28;20014;-69
2021/09/16 06:44:56;;;;;;;;;;;;;;;;;;5034626;28;20017;-66
2021/09/16 06:47:23;;;;;;;;;;;;;;;;;;5034470;28;20374;-65
2021/09/16 06:49:50;;;;;;;;;;;;;;;;;;5034662;28;20010;-65
2021/09/16 06:52:17;;;;;;;;;;;;;;;;;;5034428;28;20030;-66
2021/09/16 06:54:44;;;;;;;;;;;;;;;;;;5033970;28;20032;-65
2021/09/16 06:57:11;;;;;;;;;;;;;;;;;;5034011;28;20033;-65
2021/09/16 06:59:38;;;;;;;;;;;;;;;;;;5034491;28;20010;-66
2021/09/16 07:02:04;;;;;;;;;;;;;;;;;;5034346;28;20072;-65
2021/09/16 07:04:31;;;;;;;;;;;;;;;;;;5033946;28;20473;-69
2021/09/16 07:07:03;;;;;;;;;;;;;;;;;;5033926;28;20029;-65
2021/09/16 07:09:30;;;;;;;;;;;;;;;;;;5034062;28;20132;-66
2021/09/16 07:11:57;;;;;;;;;;;;;;;;;;5033939;28;20033;-67
2021/09/16 07:14:25;;;;;;;;;;;;;;;;;;5033868;28;20477;-67
2021/09/16 07:16:52;;;;;;;;;;;;;;;;;;5033842;28;20099;-69
2021/09/16 07:19:18;;;;;;;;;;;;;;;;;;5033862;28;20014;-66
2021/09/16 07:21:45;;;;;;;;;;;;;;;;;;5034137;28;20010;-66
2021/09/16 07:24:14;;;;;;;;;;;;;;;;;;5033574;28;20369;-69
2021/09/16 07:26:41;;;;;;;;;;;;;;;;;;5033444;28;20362;-67
2021/09/16 07:29:08;;;;;;;;;;;;;;;;;;5033114;28;20014;-74
2021/09/16 07:31:35;;;;;;;;;;;;;;;;;;5032798;28;20029;-73
2021/09/16 07:34:02;;;;;;;;;;;;;;;;;;5032492;28;20032;-71
2021/09/16 07:36:29;;;;;;;;;;;;;;;;;;5032552;28;20026;-75
2021/09/16 07:38:56;;;;;;;;;;;;;;;;;;5032914;28;20100;-72
2021/09/16 07:41:23;;;;;;;;;;;;;;;;;;5032598;28;20022;-74
2021/09/16 07:43:50;;;;;;;;;;;;;;;;;;5033002;28;20377;-76
2021/09/16 07:46:17;;;;;;;;;;;;;;;;;;5032505;28;20049;-73
2021/09/16 07:48:44;;;;;;;;;;;;;;;;;;5032669;28;20014;-70
2021/09/16 07:51:11;;;;;;;;;;;;;;;;;;5032116;28;20388;-71
2021/09/16 07:53:38;;;;;;;;;;;;;;;;;;5032755;28;20017;-76
2021/09/16 07:56:04;;;;;;;;;;;;;;;;;;5032358;28;20026;-75
2021/09/16 07:58:31;;;;;;;;;;;;;;;;;;5032223;28;20484;-77
2021/09/16 08:00:58;;;;;;;;;;;;;;;;;;5032188;28;20021;-76
2021/09/16 08:03:25;;;;;;;;;;;;;;;;;;5032357;28;20013;-72
2021/09/16 08:05:52;;;;;;;;;;;;;;;;;;5031882;28;20501;-77
2021/09/16 08:08:19;;;;;;;;;;;;;;;;;;5032308;28;20097;-73
2021/09/16 08:10:46;;;;;;;;;;;;;;;;;;5032378;28;20022;-65
2021/09/16 08:13:13;;;;;;;;;;;;;;;;;;5032991;28;20470;-68
2021/09/16 08:15:40;;;;;;;;;;;;;;;;;;5032108;28;20034;-65
2021/09/16 08:18:07;;;;;;;;;;;;;;;;;;5035426;22;20393;-67
2021/09/16 08:20:38;;;;;;;;;;;;;;;;;;4994004;28;20011;-67
2021/09/16 08:23:05;;;;;;;;;;;;;;;;;;5012350;28;20014;-67
2021/09/16 08:25:32;;;;;;;;;;;;;;;;;;5012327;28;20009;-67
2021/09/16 08:27:59;;;;;;;;;;;;;;;;;;5012225;28;20497;-68
2021/09/16 08:30:26;;;;;;;;;;;;;;;;;;5012511;28;20017;-67
2021/09/16 08:32:53;;;;;;;;;;;;;;;;;;5013044;28;20010;-67
2021/09/16 08:35:20;;;;;;;;;;;;;;;;;;5011847;28;20469;-69
2021/09/16 08:37:47;;;;;;;;;;;;;;;;;;5012373;28;20080;-67
2021/09/16 08:40:14;;;;;;;;;;;;;;;;;;5012396;28;20010;-68
2021/09/16 08:42:41;;;;;;;;;;;;;;;;;;5012425;28;20017;-67
2021/09/16 08:45:08;;;;;;;;;;;;;;;;;;5011679;28;20010;-67
2021/09/16 08:47:36;;;;;;;;;;;;;;;;;;5011980;28;20030;-68
2021/09/16 08:50:03;;;;;;;;;;;;;;;;;;5012457;28;20011;-67
2021/09/16 08:52:32;;;;;;;;;;;;;;;;;;5012022;28;20517;-67
2021/09/16 08:54:59;;;;;;;;;;;;;;;;;;5011934;28;20010;-67
2021/09/16 08:57:26;;;;;;;;;;;;;;;;;;5011734;28;20031;-67
2021/09/16 08:59:53;;;;;;;;;;;;;;;;;;5012238;28;20017;-67
2021/09/16 09:02:20;;;;;;;;;;;;;;;;;;5011898;28;20010;-67
2021/09/16 09:04:47;;;;;;;;;;;;;;;;;;5011639;28;20473;-67
2021/09/16 09:07:19;;;;;;;;;;;;;;;;;;5012100;28;20026;-67
2021/09/16 09:09:46;;;;;;;;;;;;;;;;;;5012100;28;20021;-67
2021/09/16 09:12:13;;;;;;;;;;;;;;;;;;5011882;28;20371;-68
2021/09/16 09:14:40;;;;;;;;;;;;;;;;;;5012380;28;20011;-67
2021/09/16 09:17:07;;;;;;;;;;;;;;;;;;5011560;28;20038;-69
2021/09/16 09:19:33;;;;;;;;;;;;;;;;;;5011618;28;20473;-67
2021/09/16 09:22:02;;;;;;;;;;;;;;;;;;5012076;28;20010;-67
2021/09/16 09:24:29;;;;;;;;;;;;;;;;;;5011553;28;20017;-69
2021/09/16 09:26:56;;;;;;;;;;;;;;;;;;5011735;28;20026;-68
2021/09/16 09:29:23;;;;;;;;;;;;;;;;;;5012419;28;20010;-67
2021/09/16 09:31:49;;;;;;;;;;;;;;;;;;5014823;28;20023;-68
2021/09/16 09:34:16;;;;;;;;;;;;;;;;;;5015547;28;20017;-67
2021/09/16 09:36:43;;;;;;;;;;;;;;;;;;5015150;28;20026;-68
2021/09/16 09:39:10;;;;;;;;;;;;;;;;;;5015222;28;20014;-67
2021/09/16 09:41:37;;;;;;;;;;;;;;;;;;5015291;28;20114;-68
2021/09/16 09:44:04;;;;;;;;;;;;;;;;;;5015032;28;20010;-67
2021/09/16 09:46:31;;;;;;;;;;;;;;;;;;5015044;28;20021;-67
2021/09/16 09:48:58;;;;;;;;;;;;;;;;;;5015538;28;20009;-67
2021/09/16 09:51:25;;;;;;;;;;;;;;;;;;5014905;28;20048;-68
2021/09/16 09:53:52;;;;;;;;;;;;;;;;;;5014945;28;20014;-67
2021/09/16 09:56:19;;;;;;;;;;;;;;;;;;5014741;28;20010;-67
2021/09/16 09:58:46;;;;;;;;;;;;;;;;;;5015780;28;20041;-68
2021/09/16 10:01:12;;;;;;;;;;;;;;;;;;5015151;28;20014;-67
2021/09/16 10:03:39;;;;;;;;;;;;;;;;;;5014970;28;20011;-67
2021/09/16 10:06:06;;;;;;;;;;;;;;;;;;5016164;28;20396;-68
2021/09/16 10:08:33;;;;;;;;;;;;;;;;;;5016819;28;20030;-67
2021/09/16 10:11:00;;;;;;;;;;;;;;;;;;5015905;28;20010;-68
2021/09/16 10:13:27;;;;;;;;;;;;;;;;;;5015907;28;20010;-67
2021/09/16 10:15:54;;;;;;;;;;;;;;;;;;5015035;28;20378;-67
2021/09/16 10:18:21;;;;;;;;;;;;;;;;;;5014290;28;20030;-67
2021/09/16 10:20:48;;;;;;;;;;;;;;;;;;5014793;28;20017;-68
2021/09/16 10:23:15;;;;;;;;;;;;;;;;;;5014285;28;20492;-67
2021/09/16 10:25:43;;;;;;;;;;;;;;;;;;5014772;28;20316;-67
2021/09/16 10:28:10;;;;;;;;;;;;;;;;;;5014314;28;20026;-66
2021/09/16 10:30:37;;;;;;;;;;;;;;;;;;5014724;28;20090;-67
2021/09/16 10:33:04;;;;;;;;;;;;;;;;;;5013907;28;20053;-66
2021/09/16 10:35:31;;;;;;;;;;;;;;;;;;5014177;28;20010;-67
2021/09/16 10:37:58;;;;;;;;;;;;;;;;;;5014112;28;20034;-66
2021/09/16 10:40:25;;;;;;;;;;;;;;;;;;5014325;28;20358;-67
2021/09/16 10:42:52;;;;;;;;;;;;;;;;;;5013978;28;20010;-67
2021/09/16 10:45:19;;;;;;;;;;;;;;;;;;5014219;28;20011;-66
2021/09/16 10:47:46;;;;;;;;;;;;;;;;;;5013880;28;20129;-67
2021/09/16 10:50:13;;;;;;;;;;;;;;;;;;5013681;28;20458;-66
2021/09/16 10:52:40;;;;;;;;;;;;;;;;;;5014092;28;20029;-67
2021/09/16 10:55:07;;;;;;;;;;;;;;;;;;5013959;28;20021;-66
2021/09/16 10:57:35;;;;;;;;;;;;;;;;;;5013482;28;20509;-67
2021/09/16 11:00:02;;;;;;;;;;;;;;;;;;5013906;28;20544;-67
2021/09/16 11:02:29;;;;;;;;;;;;;;;;;;5014540;28;20021;-68
2021/09/16 11:04:56;;;;;;;;;;;;;;;;;;5015788;28;20010;-66
2021/09/16 11:07:23;;;;;;;;;;;;;;;;;;5015345;28;20077;-68
2021/09/16 11:09:50;;;;;;;;;;;;;;;;;;5013988;28;20017;-67
2021/09/16 11:12:17;;;;;;;;;;;;;;;;;;5013420;28;20517;-66
2021/09/16 11:14:44;;;;;;;;;;;;;;;;;;5013411;28;20010;-67
2021/09/16 11:17:12;;;;;;;;;;;;;;;;;;5013097;28;20631;-68
2021/09/16 11:19:39;;;;;;;;;;;;;;;;;;5013532;28;20014;-67
2021/09/16 11:22:06;;;;;;;;;;;;;;;;;;5013415;28;20496;-67
2021/09/16 11:24:33;;;;;;;;;;;;;;;;;;5013342;28;20014;-67
2021/09/16 11:27:00;;;;;;;;;;;;;;;;;;5013238;28;20049;-67
2021/09/16 11:29:26;;;;;;;;;;;;;;;;;;5013220;28;20014;-67
2021/09/16 11:31:53;;;;;;;;;;;;;;;;;;5013306;28;20030;-69
2021/09/16 11:34:20;;;;;;;;;;;;;;;;;;5013268;28;20010;-67
2021/09/16 11:36:47;;;;;;;;;;;;;;;;;;5013205;28;20037;-67
2021/09/16 11:39:14;;;;;;;;;;;;;;;;;;5013521;28;20010;-67
2021/09/16 11:41:41;;;;;;;;;;;;;;;;;;5013748;28;20010;-67
2021/09/16 11:44:08;;;;;;;;;;;;;;;;;;5012633;28;20018;-67
2021/09/16 11:46:35;;;;;;;;;;;;;;;;;;5012846;28;20026;-67
2021/09/16 11:49:02;;;;;;;;;;;;;;;;;;5013406;28;20010;-67
2021/09/16 11:51:29;;;;;;;;;;;;;;;;;;5013716;28;20010;-67
2021/09/16 11:53:56;;;;;;;;;;;;;;;;;;5012192;28;20505;-68
2021/09/16 11:56:23;;;;;;;;;;;;;;;;;;5012969;28;20010;-67
2021/09/16 11:58:50;;;;;;;;;;;;;;;;;;5013193;28;20010;-67
2021/09/16 12:01:17;;;;;;;;;;;;;;;;;;5012711;28;20016;-67
2021/09/16 12:03:46;;;;;;;;;;;;;;;;;;5012832;28;20010;-67
2021/09/16 12:06:13;;;;;;;;;;;;;;;;;;5012795;28;20014;-67
2021/09/16 12:08:40;;;;;;;;;;;;;;;;;;5012715;28;20010;-69
2021/09/16 12:11:07;;;;;;;;;;;;;;;;;;5012155;28;20037;-67
2021/09/16 12:13:38;;;;;;;;;;;;;;;;;;5012044;28;21669;-67
2021/09/16 12:16:05;;;;;;;;;;;;;;;;;;5012492;28;20072;-67
2021/09/16 12:18:32;;;;;;;;;;;;;;;;;;5012888;28;20030;-66
2021/09/16 12:20:59;;;;;;;;;;;;;;;;;;5013124;28;20011;-68
2021/09/16 12:23:25;;;;;;;;;;;;;;;;;;5012763;28;20017;-67
2021/09/16 12:25:52;;;;;;;;;;;;;;;;;;5012249;28;20533;-67
2021/09/16 12:28:19;;;;;;;;;;;;;;;;;;5012514;28;20027;-67
2021/09/16 12:30:46;;;;;;;;;;;;;;;;;;5012847;28;20010;-67
2021/09/16 12:33:13;;;;;;;;;;;;;;;;;;5012395;28;20033;-67
2021/09/16 12:35:40;;;;;;;;;;;;;;;;;;5012477;28;20504;-67
2021/09/16 12:38:07;;;;;;;;;;;;;;;;;;5012457;28;20029;-68
2021/09/16 12:40:34;;;;;;;;;;;;;;;;;;5012786;28;20040;-67
2021/09/16 12:43:01;;;;;;;;;;;;;;;;;;5012376;28;20410;-67
2021/09/16 12:45:28;;;;;;;;;;;;;;;;;;5012696;28;20021;-67
2021/09/16 12:47:56;;;;;;;;;;;;;;;;;;5013652;28;20026;-68
2021/09/16 12:50:23;;;;;;;;;;;;;;;;;;5015513;28;20010;-67
2021/09/16 12:52:50;;;;;;;;;;;;;;;;;;5016276;28;20030;-68
2021/09/16 12:55:17;;;;;;;;;;;;;;;;;;5015703;28;20010;-67
2021/09/16 12:57:44;;;;;;;;;;;;;;;;;;5014529;28;20027;-67
2021/09/16 13:00:10;;;;;;;;;;;;;;;;;;5014283;28;20010;-67
2021/09/16 13:02:37;;;;;;;;;;;;;;;;;;5014001;28;20033;-68
2021/09/16 13:05:04;;;;;;;;;;;;;;;;;;5015782;28;20512;-67
2021/09/16 13:07:31;;;;;;;;;;;;;;;;;;5015865;28;20030;-67
2021/09/16 13:09:58;;;;;;;;;;;;;;;;;;5016130;28;20010;-67
2021/09/16 13:12:25;;;;;;;;;;;;;;;;;;5015705;28;20508;-68
2021/09/16 13:14:52;;;;;;;;;;;;;;;;;;5015795;28;20018;-67
2021/09/16 13:17:19;;;;;;;;;;;;;;;;;;5015273;28;20030;-67
2021/09/16 13:19:46;;;;;;;;;;;;;;;;;;5015508;28;20025;-67
2021/09/16 13:22:13;;;;;;;;;;;;;;;;;;5015605;28;20470;-67
2021/09/16 13:24:40;;;;;;;;;;;;;;;;;;5015530;28;20257;-67
2021/09/16 13:27:07;;;;;;;;;;;;;;;;;;5015891;28;20033;-67
2021/09/16 13:29:33;;;;;;;;;;;;;;;;;;5015153;28;20381;-67
2021/09/16 13:32:00;;;;;;;;;;;;;;;;;;5015694;28;20010;-67
2021/09/16 13:34:27;;;;;;;;;;;;;;;;;;5015253;28;20010;-67
2021/09/16 13:36:54;;;;;;;;;;;;;;;;;;5015374;28;20405;-67
2021/09/16 13:39:21;;;;;;;;;;;;;;;;;;5015368;28;20010;-67
2021/09/16 13:41:48;;;;;;;;;;;;;;;;;;5015621;28;20052;-67
2021/09/16 13:44:16;;;;;;;;;;;;;;;;;;5015065;28;20389;-67
2021/09/16 13:46:45;;;;;;;;;;;;;;;;;;5015001;28;20026;-67
2021/09/16 13:49:11;;;;;;;;;;;;;;;;;;5015513;28;20020;-67
2021/09/16 13:51:38;;;;;;;;;;;;;;;;;;5015503;28;20014;-67
2021/09/16 13:54:05;;;;;;;;;;;;;;;;;;5014628;28;20026;-67
2021/09/16 13:56:32;;;;;;;;;;;;;;;;;;5015027;28;20010;-67
2021/09/16 13:58:59;;;;;;;;;;;;;;;;;;5015239;28;20010;-67
2021/09/16 14:01:26;;;;;;;;;;;;;;;;;;5014760;28;20470;-67
2021/09/16 14:03:53;;;;;;;;;;;;;;;;;;5015197;28;20015;-67
2021/09/16 14:06:20;;;;;;;;;;;;;;;;;;5014590;28;20010;-67
2021/09/16 14:08:47;;;;;;;;;;;;;;;;;;5014628;28;20017;-68
2021/09/16 14:11:14;;;;;;;;;;;;;;;;;;5014572;28;20524;-66
2021/09/16 14:13:41;;;;;;;;;;;;;;;;;;5014795;28;20029;-69
2021/09/16 14:16:08;;;;;;;;;;;;;;;;;;5013705;28;20014;-67
2021/09/16 14:18:35;;;;;;;;;;;;;;;;;;5045018;22;20026;-63
2021/09/16 14:21:02;;;;;;;;;;;;;;;;;;5033769;28;20010;-65
2021/09/16 14:23:29;;;;;;;;;;;;;;;;;;5034051;28;20192;-64
2021/09/16 14:25:56;;;;;;;;;;;;;;;;;;5034037;28;20056;-65
2021/09/16 14:28:23;;;;;;;;;;;;;;;;;;5033856;28;20026;-65
2021/09/16 14:30:50;;;;;;;;;;;;;;;;;;5034202;28;20014;-67
2021/09/16 14:33:19;;;;;;;;;;;;;;;;;;5034036;28;20029;-67
2021/09/16 14:35:46;;;;;;;;;;;;;;;;;;5034052;28;20012;-66
2021/09/16 14:38:13;;;;;;;;;;;;;;;;;;5034144;28;20076;-67
2021/09/16 14:40:40;;;;;;;;;;;;;;;;;;5034039;28;20392;-67
2021/09/16 14:43:07;;;;;;;;;;;;;;;;;;5033914;28;20010;-68
2021/09/16 14:45:34;;;;;;;;;;;;;;;;;;5033661;28;20020;-66
2021/09/16 14:48:01;;;;;;;;;;;;;;;;;;5033833;28;20026;-67
2021/09/16 14:50:28;;;;;;;;;;;;;;;;;;5034019;28;20365;-66
2021/09/16 14:52:55;;;;;;;;;;;;;;;;;;5033984;28;20026;-67
2021/09/16 14:55:22;;;;;;;;;;;;;;;;;;5033661;28;20010;-67
2021/09/16 14:57:49;;;;;;;;;;;;;;;;;;5033728;28;20026;-67
2021/09/16 15:00:17;;;;;;;;;;;;;;;;;;5033865;28;20461;-68
2021/09/16 15:02:44;;;;;;;;;;;;;;;;;;5034382;28;20014;-64
2021/09/16 15:05:11;;;;;;;;;;;;;;;;;;5033550;28;20009;-67
2021/09/16 15:07:38;;;;;;;;;;;;;;;;;;5033741;28;20524;-66
2021/09/16 15:10:05;;;;;;;;;;;;;;;;;;5033736;28;20017;-66
2021/09/16 15:12:32;;;;;;;;;;;;;;;;;;5033475;28;20104;-66
2021/09/16 15:14:59;;;;;;;;;;;;;;;;;;5033446;28;20010;-66
2021/09/16 15:17:26;;;;;;;;;;;;;;;;;;5033379;28;20088;-66
2021/09/16 15:19:53;;;;;;;;;;;;;;;;;;5033651;28;20048;-66
2021/09/16 15:22:19;;;;;;;;;;;;;;;;;;5033303;28;20009;-66
2021/09/16 15:24:47;;;;;;;;;;;;;;;;;;5033377;28;20009;-66
2021/09/16 15:27:14;;;;;;;;;;;;;;;;;;5032258;28;20076;-66
2021/09/16 15:29:41;;;;;;;;;;;;;;;;;;5033548;28;20010;-66
2021/09/16 15:32:08;;;;;;;;;;;;;;;;;;5032939;28;20010;-66
2021/09/16 15:34:35;;;;;;;;;;;;;;;;;;5032867;28;20443;-66
2021/09/16 15:37:02;;;;;;;;;;;;;;;;;;5032711;28;20037;-66
2021/09/16 15:39:29;;;;;;;;;;;;;;;;;;5032900;28;20252;-69
2021/09/16 15:41:56;;;;;;;;;;;;;;;;;;5032866;28;20480;-68
2021/09/16 15:44:24;;;;;;;;;;;;;;;;;;5032965;28;20016;-67
2021/09/16 15:46:51;;;;;;;;;;;;;;;;;;5032585;28;20050;-69
2021/09/16 15:49:18;;;;;;;;;;;;;;;;;;5033180;28;20010;-66
2021/09/16 15:51:45;;;;;;;;;;;;;;;;;;5032838;28;20014;-66
2021/09/16 15:54:12;;;;;;;;;;;;;;;;;;5032347;28;20051;-68
2021/09/16 15:56:39;;;;;;;;;;;;;;;;;;5032739;28;20017;-67
2021/09/16 15:59:06;;;;;;;;;;;;;;;;;;5033093;28;20374;-66
2021/09/16 16:01:32;;;;;;;;;;;;;;;;;;5032943;28;20010;-66
2021/09/16 16:03:59;;;;;;;;;;;;;;;;;;5032466;28;20014;-66
2021/09/16 16:06:26;;;;;;;;;;;;;;;;;;5032431;28;20122;-68
2021/09/16 16:08:53;;;;;;;;;;;;;;;;;;5032475;28;20033;-68
2021/09/16 16:11:20;;;;;;;;;;;;;;;;;;5032723;28;20018;-67
2021/09/16 16:13:48;;;;;;;;;;;;;;;;;;5032623;28;20022;-68
2021/09/16 16:16:15;;;;;;;;;;;;;;;;;;5032142;28;20013;-68
2021/09/16 16:18:42;;;;;;;;;;;;;;;;;;5032145;28;20116;-67
2021/09/16 16:21:09;;;;;;;;;;;;;;;;;;5032149;28;20010;-69
2021/09/16 16:23:36;;;;;;;;;;;;;;;;;;5032354;28;20021;-67
2021/09/16 16:26:03;;;;;;;;;;;;;;;;;;5032187;28;20033;-68
2021/09/16 16:28:30;;;;;;;;;;;;;;;;;;5032139;28;20077;-68
2021/09/16 16:30:56;;;;;;;;;;;;;;;;;;5031893;28;20016;-68
2021/09/16 16:33:23;;;;;;;;;;;;;;;;;;5032112;28;20045;-68
2021/09/16 16:35:53;;;;;;;;;;;;;;;;;;5031776;28;20013;-68
2021/09/16 16:38:20;;;;;;;;;;;;;;;;;;5032493;28;20030;-67
2021/09/16 16:40:48;;;;;;;;;;;;;;;;;;5036121;28;20469;-68
2021/09/16 16:43:15;;;;;;;;;;;;;;;;;;5036133;28;20045;-68